sensor_id;sensor_type;location;lat;lon;timestamp;temperature;humidity
13744;DHT22;6943;52.368;9.966;2024-01-15T00:00:38;2.70;99.90
13744;DHT22;6943;52.368;9.966;2024-01-15T00:03:04;2.80;99.90
13744;DHT22;6943;52.368;9.966;2024-01-15T00:05:29;2.80;99.90
13744;DHT22;6943;52.368;9.966;2024-01-15T00:07:55;2.80;99.90
13744;DHT22;6943;52.368;9.966;2024-01-15T00:10:20;2.80;99.90
13744;DHT22;6943;52.368;9.966;2024-01-15T00:12:46;2.70;99.90
13744;DHT22;6943;52.368;9.966;2024-01-15T00:15:11;2.60;99.90
13744;DHT22;6943;52.368;9.966;2024-01-15T00:17:38;2.60;99.90
13744;DHT22;6943;52.368;9.966;2024-01-15T00:20:04;2.70;99.90
13744;DHT22;6943;52.368;9.966;2024-01-15T00:22:30;2.70;99.90
13744;DHT22;6943;52.368;9.966;2024-01-15T00:24:56;2.60;99.90
13744;DHT22;6943;52.368;9.966;2024-01-15T00:27:21;3.40;99.90
13744;DHT22;6943;52.368;9.966;2024-01-15T00:29:47;2.80;99.90
13744;DHT22;6943;52.368;9.966;2024-01-15T00:32:13;2.80;99.90
13744;DHT22;6943;52.368;9.966;2024-01-15T00:34:39;2.70;99.90
13744;DHT22;6943;52.368;9.966;2024-01-15T00:37:04;2.60;99.90
13744;DHT22;6943;52.368;9.966;2024-01-15T00:39:32;2.50;99.90
13744;DHT22;6943;52.368;9.966;2024-01-15T00:41:58;2.30;99.90
13744;DHT22;6943;52.368;9.966;2024-01-15T00:44:23;2.20;99.90
13744;DHT22;6943;52.368;9.966;2024-01-15T00:46:48;2.10;99.90
13744;DHT22;6943;52.368;9.966;2024-01-15T00:49:14;2.00;99.90
13744;DHT22;6943;52.368;9.966;2024-01-15T00:51:40;1.90;99.90
13744;DHT22;6943;52.368;9.966;2024-01-15T00:54:06;1.90;99.90
13744;DHT22;6943;52.368;9.966;2024-01-15T00:56:31;1.80;99.90
13744;DHT22;6943;52.368;9.966;2024-01-15T00:58:57;1.80;99.90
13744;DHT22;6943;52.368;9.966;2024-01-15T01:01:22;1.80;99.90
13744;DHT22;6943;52.368;9.966;2024-01-15T01:03:48;1.80;99.90
13744;DHT22;6943;52.368;9.966;2024-01-15T01:06:13;1.80;99.90
13744;DHT22;6943;52.368;9.966;2024-01-15T01:08:39;1.80;99.90
13744;DHT22;6943;52.368;9.966;2024-01-15T01:11:05;1.90;99.90
13744;DHT22;6943;52.368;9.966;2024-01-15T01:13:32;1.90;99.90
13744;DHT22;6943;52.368;9.966;2024-01-15T01:15:58;2.00;99.90
13744;DHT22;6943;52.368;9.966;2024-01-15T01:18:23;2.00;99.90
13744;DHT22;6943;52.368;9.966;2024-01-15T01:20:49;2.10;99.90
13744;DHT22;6943;52.368;9.966;2024-01-15T01:23:14;2.10;99.90
13744;DHT22;6943;52.368;9.966;2024-01-15T01:25:40;2.10;99.90
13744;DHT22;6943;52.368;9.966;2024-01-15T01:28:05;2.20;99.90
13744;DHT22;6943;52.368;9.966;2024-01-15T01:30:31;2.30;99.90
13744;DHT22;6943;52.368;9.966;2024-01-15T01:32:56;2.40;99.90
13744;DHT22;6943;52.368;9.966;2024-01-15T01:35:22;2.40;99.90
13744;DHT22;6943;52.368;9.966;2024-01-15T01:37:48;2.40;99.90
13744;DHT22;6943;52.368;9.966;2024-01-15T01:40:14;2.40;99.90
13744;DHT22;6943;52.368;9.966;2024-01-15T01:42:39;2.40;99.90
13744;DHT22;6943;52.368;9.966;2024-01-15T01:45:05;2.30;99.90
13744;DHT22;6943;52.368;9.966;2024-01-15T01:47:31;2.20;99.90
13744;DHT22;6943;52.368;9.966;2024-01-15T01:49:57;2.20;99.90
13744;DHT22;6943;52.368;9.966;2024-01-15T01:52:23;2.20;99.90
13744;DHT22;6943;52.368;9.966;2024-01-15T01:54:49;2.20;99.90
13744;DHT22;6943;52.368;9.966;2024-01-15T01:57:15;2.20;99.90
13744;DHT22;6943;52.368;9.966;2024-01-15T01:59:42;2.20;99.90
13744;DHT22;6943;52.368;9.966;2024-01-15T02:02:07;2.20;99.90
13744;DHT22;6943;52.368;9.966;2024-01-15T02:04:33;2.30;99.90
13744;DHT22;6943;52.368;9.966;2024-01-15T02:06:59;2.40;99.90
13744;DHT22;6943;52.368;9.966;2024-01-15T02:09:25;2.50;99.90
13744;DHT22;6943;52.368;9.966;2024-01-15T02:11:51;2.60;99.90
13744;DHT22;6943;52.368;9.966;2024-01-15T02:14:16;2.70;99.90
13744;DHT22;6943;52.368;9.966;2024-01-15T02:16:42;2.70;99.90
13744;DHT22;6943;52.368;9.966;2024-01-15T02:19:15;2.80;99.90
13744;DHT22;6943;52.368;9.966;2024-01-15T02:21:41;2.80;99.90
13744;DHT22;6943;52.368;9.966;2024-01-15T02:24:06;2.80;99.90
13744;DHT22;6943;52.368;9.966;2024-01-15T02:26:32;2.90;99.90
13744;DHT22;6943;52.368;9.966;2024-01-15T02:29:01;2.90;99.90
13744;DHT22;6943;52.368;9.966;2024-01-15T02:31:27;2.90;99.90
13744;DHT22;6943;52.368;9.966;2024-01-15T02:33:52;3.00;99.90
13744;DHT22;6943;52.368;9.966;2024-01-15T02:36:18;3.10;99.90
13744;DHT22;6943;52.368;9.966;2024-01-15T02:38:43;3.10;99.90
13744;DHT22;6943;52.368;9.966;2024-01-15T02:41:09;3.10;99.90
13744;DHT22;6943;52.368;9.966;2024-01-15T02:43:34;3.10;99.90
13744;DHT22;6943;52.368;9.966;2024-01-15T02:46:00;3.10;99.90
13744;DHT22;6943;52.368;9.966;2024-01-15T02:48:25;2.80;99.90
13744;DHT22;6943;52.368;9.966;2024-01-15T02:50:51;2.90;99.90
13744;DHT22;6943;52.368;9.966;2024-01-15T02:53:16;2.90;99.90
13744;DHT22;6943;52.368;9.966;2024-01-15T02:55:42;3.00;99.90
13744;DHT22;6943;52.368;9.966;2024-01-15T02:58:07;3.10;99.90
13744;DHT22;6943;52.368;9.966;2024-01-15T03:00:33;3.10;99.90
13744;DHT22;6943;52.368;9.966;2024-01-15T03:02:58;3.10;99.90
13744;DHT22;6943;52.368;9.966;2024-01-15T03:05:24;3.10;99.90
13744;DHT22;6943;52.368;9.966;2024-01-15T03:07:49;3.00;99.90
13744;DHT22;6943;52.368;9.966;2024-01-15T03:10:15;3.00;99.90
13744;DHT22;6943;52.368;9.966;2024-01-15T03:12:40;3.00;99.90
13744;DHT22;6943;52.368;9.966;2024-01-15T03:15:06;3.00;99.90
13744;DHT22;6943;52.368;9.966;2024-01-15T03:17:32;3.00;99.90
13744;DHT22;6943;52.368;9.966;2024-01-15T03:19:57;3.00;99.90
13744;DHT22;6943;52.368;9.966;2024-01-15T03:22:22;3.00;99.90
13744;DHT22;6943;52.368;9.966;2024-01-15T03:24:48;3.00;99.90
13744;DHT22;6943;52.368;9.966;2024-01-15T03:27:13;3.00;99.90
13744;DHT22;6943;52.368;9.966;2024-01-15T03:29:40;3.10;99.90
13744;DHT22;6943;52.368;9.966;2024-01-15T03:32:05;3.10;99.90
13744;DHT22;6943;52.368;9.966;2024-01-15T03:34:31;3.10;99.90
13744;DHT22;6943;52.368;9.966;2024-01-15T03:36:56;3.10;99.90
13744;DHT22;6943;52.368;9.966;2024-01-15T03:39:22;3.10;99.90
13744;DHT22;6943;52.368;9.966;2024-01-15T03:41:47;3.20;99.90
13744;DHT22;6943;52.368;9.966;2024-01-15T03:44:13;3.20;99.90
13744;DHT22;6943;52.368;9.966;2024-01-15T03:46:39;3.20;99.90
13744;DHT22;6943;52.368;9.966;2024-01-15T03:49:04;3.20;99.90
13744;DHT22;6943;52.368;9.966;2024-01-15T03:51:30;3.20;99.90
13744;DHT22;6943;52.368;9.966;2024-01-15T03:53:55;3.10;99.90
13744;DHT22;6943;52.368;9.966;2024-01-15T03:56:21;3.10;99.90
13744;DHT22;6943;52.368;9.966;2024-01-15T03:58:46;3.00;99.90
13744;DHT22;6943;52.368;9.966;2024-01-15T04:01:12;3.00;99.90
13744;DHT22;6943;52.368;9.966;2024-01-15T04:03:37;3.10;99.90
13744;DHT22;6943;52.368;9.966;2024-01-15T04:06:03;3.10;99.90
13744;DHT22;6943;52.368;9.966;2024-01-15T04:08:29;3.10;99.90
13744;DHT22;6943;52.368;9.966;2024-01-15T04:10:54;3.10;99.90
13744;DHT22;6943;52.368;9.966;2024-01-15T04:13:20;3.10;99.90
13744;DHT22;6943;52.368;9.966;2024-01-15T04:15:46;3.20;99.90
13744;DHT22;6943;52.368;9.966;2024-01-15T04:18:11;3.20;99.90
13744;DHT22;6943;52.368;9.966;2024-01-15T04:20:37;3.20;99.90
13744;DHT22;6943;52.368;9.966;2024-01-15T04:23:04;3.30;99.90
13744;DHT22;6943;52.368;9.966;2024-01-15T04:25:29;3.30;99.90
13744;DHT22;6943;52.368;9.966;2024-01-15T04:27:55;3.30;99.90
13744;DHT22;6943;52.368;9.966;2024-01-15T04:30:20;3.30;99.90
13744;DHT22;6943;52.368;9.966;2024-01-15T04:32:46;3.30;99.90
13744;DHT22;6943;52.368;9.966;2024-01-15T04:35:11;3.30;99.90
13744;DHT22;6943;52.368;9.966;2024-01-15T04:37:38;3.30;99.90
13744;DHT22;6943;52.368;9.966;2024-01-15T04:40:04;3.30;99.90
13744;DHT22;6943;52.368;9.966;2024-01-15T04:42:30;3.20;99.90
13744;DHT22;6943;52.368;9.966;2024-01-15T04:44:55;3.10;99.90
13744;DHT22;6943;52.368;9.966;2024-01-15T04:47:21;3.10;99.90
13744;DHT22;6943;52.368;9.966;2024-01-15T04:49:46;3.10;99.90
13744;DHT22;6943;52.368;9.966;2024-01-15T04:52:13;3.10;99.90
13744;DHT22;6943;52.368;9.966;2024-01-15T04:54:38;3.10;99.90
13744;DHT22;6943;52.368;9.966;2024-01-15T04:57:04;3.10;99.90
13744;DHT22;6943;52.368;9.966;2024-01-15T04:59:29;3.00;99.90
13744;DHT22;6943;52.368;9.966;2024-01-15T05:01:55;3.00;99.90
13744;DHT22;6943;52.368;9.966;2024-01-15T05:04:21;3.00;99.90
13744;DHT22;6943;52.368;9.966;2024-01-15T05:06:46;2.90;99.90
13744;DHT22;6943;52.368;9.966;2024-01-15T05:09:12;3.00;99.90
13744;DHT22;6943;52.368;9.966;2024-01-15T05:11:39;3.00;99.90
13744;DHT22;6943;52.368;9.966;2024-01-15T05:14:04;3.00;99.90
13744;DHT22;6943;52.368;9.966;2024-01-15T05:16:29;2.90;99.90
13744;DHT22;6943;52.368;9.966;2024-01-15T05:18:55;2.80;99.90
13744;DHT22;6943;52.368;9.966;2024-01-15T05:21:20;2.70;99.90
13744;DHT22;6943;52.368;9.966;2024-01-15T05:23:46;2.80;99.90
13744;DHT22;6943;52.368;9.966;2024-01-15T05:26:11;2.90;99.90
13744;DHT22;6943;52.368;9.966;2024-01-15T05:28:37;2.90;99.90
13744;DHT22;6943;52.368;9.966;2024-01-15T05:31:03;2.80;99.90
13744;DHT22;6943;52.368;9.966;2024-01-15T05:33:29;2.90;99.90
13744;DHT22;6943;52.368;9.966;2024-01-15T05:35:55;2.90;99.90
13744;DHT22;6943;52.368;9.966;2024-01-15T05:38:21;2.90;99.90
13744;DHT22;6943;52.368;9.966;2024-01-15T05:40:46;2.90;99.90
13744;DHT22;6943;52.368;9.966;2024-01-15T05:43:11;3.00;99.90
13744;DHT22;6943;52.368;9.966;2024-01-15T05:45:38;3.00;99.90
13744;DHT22;6943;52.368;9.966;2024-01-15T05:48:05;3.00;99.90
13744;DHT22;6943;52.368;9.966;2024-01-15T05:50:30;3.00;99.90
13744;DHT22;6943;52.368;9.966;2024-01-15T05:52:55;3.00;99.90
13744;DHT22;6943;52.368;9.966;2024-01-15T05:55:21;3.10;99.90
13744;DHT22;6943;52.368;9.966;2024-01-15T05:57:46;3.00;99.90
13744;DHT22;6943;52.368;9.966;2024-01-15T06:00:12;3.00;99.90
13744;DHT22;6943;52.368;9.966;2024-01-15T06:02:38;3.00;99.90
13744;DHT22;6943;52.368;9.966;2024-01-15T06:05:04;3.10;99.90
13744;DHT22;6943;52.368;9.966;2024-01-15T06:07:31;3.10;99.90
13744;DHT22;6943;52.368;9.966;2024-01-15T06:09:57;3.10;99.90
13744;DHT22;6943;52.368;9.966;2024-01-15T06:12:23;3.10;99.90
13744;DHT22;6943;52.368;9.966;2024-01-15T06:14:48;3.20;99.90
13744;DHT22;6943;52.368;9.966;2024-01-15T06:17:13;3.10;99.90
13744;DHT22;6943;52.368;9.966;2024-01-15T06:19:39;3.10;99.90
13744;DHT22;6943;52.368;9.966;2024-01-15T06:22:04;3.10;99.90
13744;DHT22;6943;52.368;9.966;2024-01-15T06:24:30;3.00;99.90
13744;DHT22;6943;52.368;9.966;2024-01-15T06:26:55;3.00;99.90
13744;DHT22;6943;52.368;9.966;2024-01-15T06:29:21;3.00;99.90
13744;DHT22;6943;52.368;9.966;2024-01-15T06:31:47;3.00;99.90
13744;DHT22;6943;52.368;9.966;2024-01-15T06:34:12;3.00;99.90
13744;DHT22;6943;52.368;9.966;2024-01-15T06:36:38;3.00;99.90
13744;DHT22;6943;52.368;9.966;2024-01-15T06:39:03;2.90;99.90
13744;DHT22;6943;52.368;9.966;2024-01-15T06:41:29;2.90;99.90
13744;DHT22;6943;52.368;9.966;2024-01-15T06:43:54;2.90;99.90
13744;DHT22;6943;52.368;9.966;2024-01-15T06:46:21;2.90;99.90
13744;DHT22;6943;52.368;9.966;2024-01-15T06:48:47;2.90;99.90
13744;DHT22;6943;52.368;9.966;2024-01-15T06:51:13;2.80;99.90
13744;DHT22;6943;52.368;9.966;2024-01-15T06:53:38;2.70;99.90
13744;DHT22;6943;52.368;9.966;2024-01-15T06:56:04;2.70;99.90
13744;DHT22;6943;52.368;9.966;2024-01-15T06:58:31;2.80;99.90
13744;DHT22;6943;52.368;9.966;2024-01-15T07:00:56;2.90;99.90
13744;DHT22;6943;52.368;9.966;2024-01-15T07:03:23;2.90;99.90
13744;DHT22;6943;52.368;9.966;2024-01-15T07:05:48;3.00;99.90
13744;DHT22;6943;52.368;9.966;2024-01-15T07:08:14;2.90;99.90
13744;DHT22;6943;52.368;9.966;2024-01-15T07:10:39;3.00;99.90
13744;DHT22;6943;52.368;9.966;2024-01-15T07:13:05;3.00;99.90
13744;DHT22;6943;52.368;9.966;2024-01-15T07:15:33;3.00;99.90
13744;DHT22;6943;52.368;9.966;2024-01-15T07:17:59;3.00;99.90
13744;DHT22;6943;52.368;9.966;2024-01-15T07:20:25;3.10;99.90
13744;DHT22;6943;52.368;9.966;2024-01-15T07:22:51;3.10;99.90
13744;DHT22;6943;52.368;9.966;2024-01-15T07:25:16;3.10;99.90
13744;DHT22;6943;52.368;9.966;2024-01-15T07:27:42;3.10;99.90
13744;DHT22;6943;52.368;9.966;2024-01-15T07:30:11;3.10;99.90
13744;DHT22;6943;52.368;9.966;2024-01-15T07:32:37;3.20;99.90
13744;DHT22;6943;52.368;9.966;2024-01-15T07:35:03;3.20;99.90
13744;DHT22;6943;52.368;9.966;2024-01-15T07:37:31;3.20;99.90
13744;DHT22;6943;52.368;9.966;2024-01-15T07:39:56;3.20;99.90
13744;DHT22;6943;52.368;9.966;2024-01-15T07:42:22;3.20;99.90
13744;DHT22;6943;52.368;9.966;2024-01-15T07:44:47;3.30;99.90
13744;DHT22;6943;52.368;9.966;2024-01-15T07:47:13;3.30;99.90
13744;DHT22;6943;52.368;9.966;2024-01-15T07:49:38;3.30;99.90
13744;DHT22;6943;52.368;9.966;2024-01-15T07:52:04;3.20;99.90
13744;DHT22;6943;52.368;9.966;2024-01-15T07:54:31;3.20;99.90
13744;DHT22;6943;52.368;9.966;2024-01-15T07:56:58;3.10;99.90
13744;DHT22;6943;52.368;9.966;2024-01-15T07:59:24;3.20;99.90
13744;DHT22;6943;52.368;9.966;2024-01-15T08:01:51;3.20;99.90
13744;DHT22;6943;52.368;9.966;2024-01-15T08:04:17;3.20;99.90
13744;DHT22;6943;52.368;9.966;2024-01-15T08:06:42;3.20;99.90
13744;DHT22;6943;52.368;9.966;2024-01-15T08:09:08;3.20;99.90
13744;DHT22;6943;52.368;9.966;2024-01-15T08:11:34;3.20;99.90
13744;DHT22;6943;52.368;9.966;2024-01-15T08:14:00;3.20;99.90
13744;DHT22;6943;52.368;9.966;2024-01-15T08:16:25;3.30;99.90
13744;DHT22;6943;52.368;9.966;2024-01-15T08:18:51;3.30;99.90
13744;DHT22;6943;52.368;9.966;2024-01-15T08:21:16;3.40;99.90
13744;DHT22;6943;52.368;9.966;2024-01-15T08:23:41;3.30;99.90
13744;DHT22;6943;52.368;9.966;2024-01-15T08:26:07;3.30;99.90
13744;DHT22;6943;52.368;9.966;2024-01-15T08:28:34;3.20;99.90
13744;DHT22;6943;52.368;9.966;2024-01-15T08:30:59;3.20;99.90
13744;DHT22;6943;52.368;9.966;2024-01-15T08:33:25;3.10;99.90
13744;DHT22;6943;52.368;9.966;2024-01-15T08:35:50;3.10;99.90
13744;DHT22;6943;52.368;9.966;2024-01-15T08:38:15;3.00;99.90
13744;DHT22;6943;52.368;9.966;2024-01-15T08:40:41;2.90;99.90
13744;DHT22;6943;52.368;9.966;2024-01-15T08:43:06;2.90;99.90
13744;DHT22;6943;52.368;9.966;2024-01-15T08:45:32;2.90;99.90
13744;DHT22;6943;52.368;9.966;2024-01-15T08:47:58;2.90;99.90
13744;DHT22;6943;52.368;9.966;2024-01-15T08:50:24;2.90;99.90
13744;DHT22;6943;52.368;9.966;2024-01-15T08:52:49;3.00;99.90
13744;DHT22;6943;52.368;9.966;2024-01-15T08:55:15;3.00;99.90
13744;DHT22;6943;52.368;9.966;2024-01-15T08:57:40;3.10;99.90
13744;DHT22;6943;52.368;9.966;2024-01-15T09:00:06;3.20;99.90
13744;DHT22;6943;52.368;9.966;2024-01-15T09:02:34;3.30;99.90
13744;DHT22;6943;52.368;9.966;2024-01-15T09:05:00;3.30;99.90
13744;DHT22;6943;52.368;9.966;2024-01-15T09:07:25;3.50;99.90
13744;DHT22;6943;52.368;9.966;2024-01-15T09:09:52;3.70;99.90
13744;DHT22;6943;52.368;9.966;2024-01-15T09:12:18;4.10;99.90
13744;DHT22;6943;52.368;9.966;2024-01-15T09:14:44;4.30;99.90
13744;DHT22;6943;52.368;9.966;2024-01-15T09:17:09;4.40;99.90
13744;DHT22;6943;52.368;9.966;2024-01-15T09:19:35;4.50;99.90
13744;DHT22;6943;52.368;9.966;2024-01-15T09:22:01;4.20;99.90
13744;DHT22;6943;52.368;9.966;2024-01-15T09:24:26;4.10;99.90
13744;DHT22;6943;52.368;9.966;2024-01-15T09:26:52;4.20;99.90
13744;DHT22;6943;52.368;9.966;2024-01-15T09:29:17;4.20;99.90
13744;DHT22;6943;52.368;9.966;2024-01-15T09:31:43;4.20;99.90
13744;DHT22;6943;52.368;9.966;2024-01-15T09:34:09;4.20;99.90
13744;DHT22;6943;52.368;9.966;2024-01-15T09:36:39;4.50;99.90
13744;DHT22;6943;52.368;9.966;2024-01-15T09:39:06;4.90;99.90
13744;DHT22;6943;52.368;9.966;2024-01-15T09:41:34;5.00;99.90
13744;DHT22;6943;52.368;9.966;2024-01-15T09:44:00;5.00;99.90
13744;DHT22;6943;52.368;9.966;2024-01-15T09:46:26;5.20;99.90
13744;DHT22;6943;52.368;9.966;2024-01-15T09:48:51;5.20;99.90
13744;DHT22;6943;52.368;9.966;2024-01-15T09:51:17;5.20;99.90
13744;DHT22;6943;52.368;9.966;2024-01-15T09:53:44;5.10;99.90
13744;DHT22;6943;52.368;9.966;2024-01-15T09:56:10;4.90;99.90
13744;DHT22;6943;52.368;9.966;2024-01-15T09:58:37;4.80;99.90
13744;DHT22;6943;52.368;9.966;2024-01-15T10:01:03;5.00;99.90
13744;DHT22;6943;52.368;9.966;2024-01-15T10:03:29;5.10;99.90
13744;DHT22;6943;52.368;9.966;2024-01-15T10:05:55;5.10;99.90
13744;DHT22;6943;52.368;9.966;2024-01-15T10:08:22;5.00;99.90
13744;DHT22;6943;52.368;9.966;2024-01-15T10:10:48;5.00;99.90
13744;DHT22;6943;52.368;9.966;2024-01-15T10:13:14;5.00;99.90
13744;DHT22;6943;52.368;9.966;2024-01-15T10:15:40;4.90;99.90
13744;DHT22;6943;52.368;9.966;2024-01-15T10:18:08;4.90;99.90
13744;DHT22;6943;52.368;9.966;2024-01-15T10:20:33;4.80;99.90
13744;DHT22;6943;52.368;9.966;2024-01-15T10:22:59;4.80;99.90
13744;DHT22;6943;52.368;9.966;2024-01-15T10:25:24;4.50;99.90
13744;DHT22;6943;52.368;9.966;2024-01-15T10:28:02;4.40;99.90
13744;DHT22;6943;52.368;9.966;2024-01-15T10:30:27;4.40;99.90
13744;DHT22;6943;52.368;9.966;2024-01-15T10:33:00;4.50;99.90
13744;DHT22;6943;52.368;9.966;2024-01-15T10:35:30;4.50;99.90
13744;DHT22;6943;52.368;9.966;2024-01-15T10:37:56;4.50;99.90
13744;DHT22;6943;52.368;9.966;2024-01-15T10:40:22;4.40;99.90
13744;DHT22;6943;52.368;9.966;2024-01-15T10:42:48;4.30;99.90
13744;DHT22;6943;52.368;9.966;2024-01-15T10:45:14;4.20;99.90
13744;DHT22;6943;52.368;9.966;2024-01-15T10:47:40;4.20;99.90
13744;DHT22;6943;52.368;9.966;2024-01-15T10:50:07;4.00;99.90
13744;DHT22;6943;52.368;9.966;2024-01-15T10:52:34;3.90;99.90
13744;DHT22;6943;52.368;9.966;2024-01-15T10:55:00;3.90;99.90
13744;DHT22;6943;52.368;9.966;2024-01-15T10:57:27;4.00;99.90
13744;DHT22;6943;52.368;9.966;2024-01-15T10:59:52;4.20;99.90
13744;DHT22;6943;52.368;9.966;2024-01-15T11:02:18;4.40;99.90
13744;DHT22;6943;52.368;9.966;2024-01-15T11:04:43;4.70;99.90
13744;DHT22;6943;52.368;9.966;2024-01-15T11:07:10;4.80;99.90
13744;DHT22;6943;52.368;9.966;2024-01-15T11:09:37;4.70;99.90
13744;DHT22;6943;52.368;9.966;2024-01-15T11:12:13;4.70;99.90
13744;DHT22;6943;52.368;9.966;2024-01-15T11:17:04;4.50;99.90
13744;DHT22;6943;52.368;9.966;2024-01-15T11:19:45;4.40;99.90
13744;DHT22;6943;52.368;9.966;2024-01-15T11:24:57;4.40;99.90
13744;DHT22;6943;52.368;9.966;2024-01-15T11:27:46;4.30;99.90
13744;DHT22;6943;52.368;9.966;2024-01-15T11:30:19;4.30;99.90
13744;DHT22;6943;52.368;9.966;2024-01-15T11:32:48;4.40;99.90
13744;DHT22;6943;52.368;9.966;2024-01-15T11:35:14;4.50;99.90
13744;DHT22;6943;52.368;9.966;2024-01-15T11:42:58;4.70;99.90
13744;DHT22;6943;52.368;9.966;2024-01-15T11:45:24;4.80;99.90
13744;DHT22;6943;52.368;9.966;2024-01-15T11:50:30;4.70;99.90
13744;DHT22;6943;52.368;9.966;2024-01-15T11:53:03;4.60;99.90
13744;DHT22;6943;52.368;9.966;2024-01-15T11:55:38;4.70;99.90
13744;DHT22;6943;52.368;9.966;2024-01-15T11:58:08;4.60;99.90
13744;DHT22;6943;52.368;9.966;2024-01-15T12:00:38;4.60;99.90
13744;DHT22;6943;52.368;9.966;2024-01-15T12:03:05;4.80;99.90
13744;DHT22;6943;52.368;9.966;2024-01-15T12:05:30;4.80;99.90
13744;DHT22;6943;52.368;9.966;2024-01-15T12:07:56;4.60;99.90
13744;DHT22;6943;52.368;9.966;2024-01-15T12:10:21;4.50;99.90
13744;DHT22;6943;52.368;9.966;2024-01-15T12:13:00;4.40;99.90
13744;DHT22;6943;52.368;9.966;2024-01-15T12:15:30;4.30;99.90
13744;DHT22;6943;52.368;9.966;2024-01-15T12:17:57;4.20;99.90
13744;DHT22;6943;52.368;9.966;2024-01-15T12:20:26;4.10;99.90
13744;DHT22;6943;52.368;9.966;2024-01-15T12:22:52;4.10;99.90
13744;DHT22;6943;52.368;9.966;2024-01-15T12:25:18;4.10;99.90
13744;DHT22;6943;52.368;9.966;2024-01-15T12:27:44;4.10;99.90
13744;DHT22;6943;52.368;9.966;2024-01-15T12:30:13;4.10;99.90
13744;DHT22;6943;52.368;9.966;2024-01-15T12:32:40;4.10;99.90
13744;DHT22;6943;52.368;9.966;2024-01-15T12:35:07;4.10;99.90
13744;DHT22;6943;52.368;9.966;2024-01-15T12:37:44;4.10;99.90
13744;DHT22;6943;52.368;9.966;2024-01-15T12:40:12;4.20;99.90
13744;DHT22;6943;52.368;9.966;2024-01-15T12:42:39;4.20;99.90
13744;DHT22;6943;52.368;9.966;2024-01-15T12:45:06;4.10;99.90
13744;DHT22;6943;52.368;9.966;2024-01-15T12:47:31;4.10;99.90
13744;DHT22;6943;52.368;9.966;2024-01-15T12:49:58;4.10;99.90
13744;DHT22;6943;52.368;9.966;2024-01-15T12:52:29;4.10;99.90
13744;DHT22;6943;52.368;9.966;2024-01-15T12:54:55;4.20;99.90
13744;DHT22;6943;52.368;9.966;2024-01-15T12:57:21;4.30;99.90
13744;DHT22;6943;52.368;9.966;2024-01-15T12:59:47;4.30;99.90
13744;DHT22;6943;52.368;9.966;2024-01-15T13:02:16;4.30;99.90
13744;DHT22;6943;52.368;9.966;2024-01-15T13:04:42;4.30;99.90
13744;DHT22;6943;52.368;9.966;2024-01-15T13:07:08;4.40;99.90
13744;DHT22;6943;52.368;9.966;2024-01-15T13:09:34;4.50;99.90
13744;DHT22;6943;52.368;9.966;2024-01-15T13:12:01;4.50;99.90
13744;DHT22;6943;52.368;9.966;2024-01-15T13:14:27;4.50;99.90
13744;DHT22;6943;52.368;9.966;2024-01-15T13:16:53;4.60;99.90
13744;DHT22;6943;52.368;9.966;2024-01-15T13:19:19;4.50;99.90
13744;DHT22;6943;52.368;9.966;2024-01-15T13:21:45;4.50;99.90
13744;DHT22;6943;52.368;9.966;2024-01-15T13:24:10;4.40;99.90
13744;DHT22;6943;52.368;9.966;2024-01-15T13:26:36;4.30;99.90
13744;DHT22;6943;52.368;9.966;2024-01-15T13:29:05;4.20;99.90
13744;DHT22;6943;52.368;9.966;2024-01-15T13:31:31;4.00;99.90
13744;DHT22;6943;52.368;9.966;2024-01-15T13:33:57;3.90;99.90
13744;DHT22;6943;52.368;9.966;2024-01-15T13:36:23;4.00;99.90
13744;DHT22;6943;52.368;9.966;2024-01-15T13:38:50;4.10;99.90
13744;DHT22;6943;52.368;9.966;2024-01-15T13:41:16;4.30;99.90
13744;DHT22;6943;52.368;9.966;2024-01-15T13:43:41;4.20;99.90
13744;DHT22;6943;52.368;9.966;2024-01-15T13:46:07;4.20;99.90
13744;DHT22;6943;52.368;9.966;2024-01-15T13:48:32;4.10;99.90
13744;DHT22;6943;52.368;9.966;2024-01-15T13:50:58;4.00;99.90
13744;DHT22;6943;52.368;9.966;2024-01-15T13:53:25;4.10;99.90
13744;DHT22;6943;52.368;9.966;2024-01-15T13:55:50;4.10;99.90
13744;DHT22;6943;52.368;9.966;2024-01-15T13:58:16;4.20;99.90
13744;DHT22;6943;52.368;9.966;2024-01-15T14:00:43;4.20;99.90
13744;DHT22;6943;52.368;9.966;2024-01-15T14:03:09;4.20;99.90
13744;DHT22;6943;52.368;9.966;2024-01-15T14:05:34;4.10;99.90
13744;DHT22;6943;52.368;9.966;2024-01-15T14:08:00;4.20;99.90
13744;DHT22;6943;52.368;9.966;2024-01-15T14:10:26;4.10;99.90
13744;DHT22;6943;52.368;9.966;2024-01-15T14:12:51;3.90;99.90
13744;DHT22;6943;52.368;9.966;2024-01-15T14:15:16;3.90;99.90
13744;DHT22;6943;52.368;9.966;2024-01-15T14:17:42;3.90;99.90
13744;DHT22;6943;52.368;9.966;2024-01-15T14:20:08;3.80;99.90
13744;DHT22;6943;52.368;9.966;2024-01-15T14:22:35;3.70;99.90
13744;DHT22;6943;52.368;9.966;2024-01-15T14:25:00;3.60;99.90
13744;DHT22;6943;52.368;9.966;2024-01-15T14:27:26;3.50;99.90
13744;DHT22;6943;52.368;9.966;2024-01-15T14:29:51;3.50;99.90
13744;DHT22;6943;52.368;9.966;2024-01-15T14:32:17;3.30;99.90
13744;DHT22;6943;52.368;9.966;2024-01-15T14:34:42;3.30;99.90
13744;DHT22;6943;52.368;9.966;2024-01-15T14:37:08;3.40;99.90
13744;DHT22;6943;52.368;9.966;2024-01-15T14:39:34;3.40;99.90
13744;DHT22;6943;52.368;9.966;2024-01-15T14:42:00;3.30;99.90
13744;DHT22;6943;52.368;9.966;2024-01-15T14:44:26;3.30;99.90
13744;DHT22;6943;52.368;9.966;2024-01-15T14:46:51;3.20;99.90
13744;DHT22;6943;52.368;9.966;2024-01-15T14:49:17;3.30;99.90
13744;DHT22;6943;52.368;9.966;2024-01-15T14:51:43;3.30;99.90
13744;DHT22;6943;52.368;9.966;2024-01-15T14:54:10;3.30;99.90
13744;DHT22;6943;52.368;9.966;2024-01-15T14:56:35;3.30;99.90
13744;DHT22;6943;52.368;9.966;2024-01-15T14:59:01;3.40;99.90
13744;DHT22;6943;52.368;9.966;2024-01-15T15:01:26;3.40;99.90
13744;DHT22;6943;52.368;9.966;2024-01-15T15:03:51;3.40;99.90
13744;DHT22;6943;52.368;9.966;2024-01-15T15:06:17;3.30;99.90
13744;DHT22;6943;52.368;9.966;2024-01-15T15:08:43;3.20;99.90
13744;DHT22;6943;52.368;9.966;2024-01-15T15:11:08;3.20;99.90
13744;DHT22;6943;52.368;9.966;2024-01-15T15:13:34;3.10;99.90
13744;DHT22;6943;52.368;9.966;2024-01-15T15:16:00;3.10;99.90
13744;DHT22;6943;52.368;9.966;2024-01-15T15:18:25;3.10;99.90
13744;DHT22;6943;52.368;9.966;2024-01-15T15:20:51;3.10;99.90
13744;DHT22;6943;52.368;9.966;2024-01-15T15:23:18;3.00;99.90
13744;DHT22;6943;52.368;9.966;2024-01-15T15:25:43;3.10;99.90
13744;DHT22;6943;52.368;9.966;2024-01-15T15:28:09;3.10;99.90
13744;DHT22;6943;52.368;9.966;2024-01-15T15:30:37;3.10;99.90
13744;DHT22;6943;52.368;9.966;2024-01-15T15:33:02;3.20;99.90
13744;DHT22;6943;52.368;9.966;2024-01-15T15:35:28;3.10;99.90
13744;DHT22;6943;52.368;9.966;2024-01-15T15:37:54;3.10;99.90
13744;DHT22;6943;52.368;9.966;2024-01-15T15:40:20;3.10;99.90
13744;DHT22;6943;52.368;9.966;2024-01-15T15:42:46;3.10;99.90
13744;DHT22;6943;52.368;9.966;2024-01-15T15:45:12;3.10;99.90
13744;DHT22;6943;52.368;9.966;2024-01-15T15:47:38;3.10;99.90
13744;DHT22;6943;52.368;9.966;2024-01-15T15:50:04;3.10;99.90
13744;DHT22;6943;52.368;9.966;2024-01-15T15:52:30;3.10;99.90
13744;DHT22;6943;52.368;9.966;2024-01-15T15:54:56;3.10;99.90
13744;DHT22;6943;52.368;9.966;2024-01-15T15:57:22;3.10;99.90
13744;DHT22;6943;52.368;9.966;2024-01-15T15:59:47;3.00;99.90
13744;DHT22;6943;52.368;9.966;2024-01-15T16:02:13;3.00;99.90
13744;DHT22;6943;52.368;9.966;2024-01-15T16:04:38;3.00;99.90
13744;DHT22;6943;52.368;9.966;2024-01-15T16:07:04;3.10;99.90